createdAt,value
2022-10-24T00:00:00.718Z,4.53
2022-10-24T00:02:27.876Z,3.60
2022-10-24T00:04:55.023Z,3.50
2022-10-24T00:07:23.499Z,3.93
2022-10-24T00:09:50.636Z,4.40
2022-10-24T00:12:18.442Z,3.43
2022-10-24T00:14:45.589Z,4.40
2022-10-24T00:17:12.843Z,3.07
2022-10-24T00:19:40.034Z,3.23
2022-10-24T00:22:07.133Z,3.53
2022-10-24T00:24:35.613Z,4.17
2022-10-24T00:27:02.728Z,3.60
2022-10-24T00:29:29.860Z,3.03
2022-10-24T00:31:56.967Z,4.10
2022-10-24T00:34:24.099Z,4.27
2022-10-24T00:36:51.192Z,3.30
2022-10-24T00:39:18.354Z,3.70
2022-10-24T00:41:46.790Z,4.40
2022-10-24T00:44:15.005Z,4.67
2022-10-24T00:46:42.475Z,3.33
2022-10-24T00:49:12.977Z,3.50
2022-10-24T00:51:40.190Z,3.53
2022-10-24T00:54:09.183Z,3.70
2022-10-24T00:56:38.212Z,3.90
2022-10-24T00:59:08.123Z,3.40
2022-10-24T01:01:35.563Z,3.13
2022-10-24T01:04:02.811Z,3.60
2022-10-24T01:06:37.214Z,3.07
2022-10-24T01:09:10.302Z,4.10
2022-10-24T01:11:42.691Z,3.03
2022-10-24T01:14:16.214Z,3.30
2022-10-24T01:16:46.295Z,4.27
2022-10-24T01:19:19.046Z,3.50
2022-10-24T01:21:49.186Z,3.83
2022-10-24T01:24:23.389Z,3.77
2022-10-24T01:27:02.545Z,3.40
2022-10-24T01:29:44.170Z,2.83
2022-10-24T01:32:14.434Z,3.17
2022-10-24T01:34:45.206Z,3.60
2022-10-24T01:37:16.598Z,4.50
2022-10-24T01:39:47.773Z,3.60
2022-10-24T01:42:16.437Z,4.33
2022-10-24T01:44:46.656Z,3.27
2022-10-24T01:47:17.703Z,3.63
2022-10-24T01:49:51.983Z,3.10
2022-10-24T01:52:19.898Z,3.37
2022-10-24T01:54:47.207Z,4.30
2022-10-24T01:57:14.705Z,3.50
2022-10-24T01:59:48.132Z,3.73
2022-10-24T02:02:17.866Z,3.70
2022-10-24T02:04:49.001Z,4.00
2022-10-24T02:07:16.664Z,3.73
2022-10-24T02:09:44.447Z,3.50
2022-10-24T02:12:13.001Z,3.00
2022-10-24T02:14:41.463Z,4.00
2022-10-24T02:17:09.959Z,4.23
2022-10-24T02:19:37.134Z,3.10
2022-10-24T02:22:05.453Z,4.17
2022-10-24T02:24:33.689Z,3.17
2022-10-24T02:27:03.910Z,3.23
2022-10-24T02:29:33.727Z,3.80
2022-10-24T02:32:02.751Z,3.97
2022-10-24T02:34:33.228Z,3.00
2022-10-24T02:37:02.056Z,3.20
2022-10-24T02:39:29.648Z,3.73
2022-10-24T02:41:58.126Z,3.57
2022-10-24T02:44:26.578Z,4.20
2022-10-24T02:46:55.191Z,3.40
2022-10-24T02:49:22.334Z,3.33
2022-10-24T02:51:51.403Z,3.80
2022-10-24T02:54:18.522Z,3.40
2022-10-24T02:56:48.113Z,3.70
2022-10-24T02:59:15.257Z,3.43
2022-10-24T03:01:42.441Z,4.40
2022-10-24T03:04:09.603Z,3.90
2022-10-24T03:06:36.751Z,4.63
2022-10-24T03:09:05.283Z,3.80
2022-10-24T03:11:32.435Z,3.30
2022-10-24T03:13:59.557Z,3.93
2022-10-24T03:16:26.715Z,3.50
2022-10-24T03:18:53.862Z,3.67
2022-10-24T03:21:21.055Z,3.50
2022-10-24T03:23:48.284Z,4.13
2022-10-24T03:26:16.777Z,3.63
2022-10-24T03:28:43.927Z,3.73
2022-10-24T03:31:11.108Z,3.93
2022-10-24T03:33:38.217Z,3.27
2022-10-24T03:36:05.898Z,3.77
2022-10-24T03:38:33.065Z,3.10
2022-10-24T03:41:00.161Z,3.23
2022-10-24T03:43:28.661Z,3.90
2022-10-24T03:45:55.751Z,3.77
2022-10-24T03:48:22.866Z,3.20
2022-10-24T03:50:49.971Z,3.40
2022-10-24T03:53:17.151Z,3.33
2022-10-24T03:55:44.278Z,3.20
2022-10-24T03:58:11.387Z,3.83
2022-10-24T04:00:39.921Z,3.17
2022-10-24T04:03:07.267Z,4.07
2022-10-24T04:05:34.780Z,3.37
2022-10-24T04:08:02.108Z,2.80
2022-10-24T04:10:29.359Z,3.37
2022-10-24T04:12:56.519Z,3.40
2022-10-24T04:15:23.683Z,3.37
2022-10-24T04:17:52.192Z,3.57
2022-10-24T04:20:19.412Z,3.60
2022-10-24T04:22:47.270Z,2.83
2022-10-24T04:25:14.634Z,2.60
2022-10-24T04:27:41.724Z,3.00
2022-10-24T04:30:15.511Z,2.63
2022-10-24T04:32:44.290Z,2.80
2022-10-24T04:35:12.999Z,3.33
2022-10-24T04:37:40.171Z,2.93
2022-10-24T04:40:07.862Z,3.20
2022-10-24T04:42:35.030Z,3.83
2022-10-24T04:45:02.158Z,3.30
2022-10-24T04:47:29.318Z,3.00
2022-10-24T04:49:56.473Z,3.10
2022-10-24T04:52:24.968Z,2.80
2022-10-24T04:54:52.078Z,3.00
2022-10-24T04:57:19.195Z,3.17
2022-10-24T04:59:46.347Z,3.70
2022-10-24T05:02:13.520Z,2.90
2022-10-24T05:04:40.674Z,3.53
2022-10-24T05:07:07.761Z,2.50
2022-10-24T05:09:36.295Z,2.60
2022-10-24T05:12:05.814Z,3.10
2022-10-24T05:14:33.186Z,4.53
2022-10-24T05:17:00.274Z,3.00
2022-10-24T05:19:27.439Z,2.57
2022-10-24T05:21:54.753Z,3.00
2022-10-24T05:24:21.893Z,3.10
2022-10-24T05:26:50.604Z,2.70
2022-10-24T05:29:17.719Z,2.80
2022-10-24T05:31:44.858Z,2.77
2022-10-24T05:34:12.004Z,2.33
2022-10-24T05:36:39.113Z,2.70
2022-10-24T05:39:06.260Z,2.67
2022-10-24T05:41:33.403Z,3.33
2022-10-24T05:44:01.899Z,2.60
2022-10-24T05:46:29.022Z,2.20
2022-10-24T05:48:56.307Z,3.30
2022-10-24T05:51:23.424Z,2.03
2022-10-24T05:53:50.560Z,2.67
2022-10-24T05:56:17.674Z,2.90
2022-10-24T05:58:44.792Z,2.70
2022-10-24T06:01:13.312Z,2.83
2022-10-24T06:03:40.454Z,2.17
2022-10-24T06:06:09.623Z,2.17
2022-10-24T06:08:36.816Z,2.80
2022-10-24T06:11:04.487Z,2.60
2022-10-24T06:13:35.307Z,2.40
2022-10-24T06:16:03.508Z,2.53
2022-10-24T06:18:32.052Z,3.40
2022-10-24T06:20:59.780Z,2.53
2022-10-24T06:23:26.950Z,2.53
2022-10-24T06:25:54.128Z,2.67
2022-10-24T06:28:21.269Z,2.87
2022-10-24T06:30:50.240Z,2.30
2022-10-24T06:33:17.358Z,2.00
2022-10-24T06:35:45.883Z,2.10
2022-10-24T06:38:13.195Z,1.70
2022-10-24T06:40:40.503Z,2.23
2022-10-24T06:43:07.707Z,2.37
2022-10-24T06:45:34.831Z,2.23
2022-10-24T06:48:02.142Z,2.47
2022-10-24T06:50:29.458Z,1.90
2022-10-24T06:52:57.926Z,1.90
2022-10-24T06:55:25.032Z,2.97
2022-10-24T06:57:53.423Z,2.00
2022-10-24T07:00:20.657Z,2.03
2022-10-24T07:02:47.988Z,1.93
2022-10-24T07:05:15.537Z,2.60
2022-10-24T07:07:43.772Z,1.70
2022-10-24T07:10:13.143Z,2.70
2022-10-24T07:12:40.282Z,2.60
2022-10-24T07:15:07.855Z,2.40
2022-10-24T07:17:39.012Z,2.43
2022-10-24T07:20:06.714Z,1.60
2022-10-24T07:22:33.826Z,1.77
2022-10-24T07:25:00.982Z,2.30
2022-10-24T07:27:29.431Z,2.20
2022-10-24T07:29:57.349Z,2.20
2022-10-24T07:32:25.823Z,1.90
2022-10-24T07:34:53.172Z,1.70
2022-10-24T07:37:20.430Z,2.23
2022-10-24T07:39:47.601Z,2.27
2022-10-24T07:42:14.876Z,2.63
2022-10-24T07:44:43.413Z,2.43
2022-10-24T07:47:10.566Z,2.50
2022-10-24T07:49:37.698Z,1.70
2022-10-24T07:52:04.924Z,2.20
2022-10-24T07:54:36.247Z,1.60
2022-10-24T07:57:04.671Z,2.20
2022-10-24T07:59:41.755Z,1.70
2022-10-24T08:02:11.353Z,2.07
2022-10-24T08:04:38.429Z,2.10
2022-10-24T08:07:05.807Z,1.90
2022-10-24T08:09:32.952Z,2.30
2022-10-24T08:12:00.091Z,2.57
2022-10-24T08:14:27.248Z,1.63
2022-10-24T08:16:54.377Z,1.90
2022-10-24T08:19:22.872Z,2.30
2022-10-24T08:21:50.079Z,1.60
2022-10-24T08:24:17.500Z,1.80
2022-10-24T08:26:44.711Z,2.23
2022-10-24T08:29:11.835Z,2.13
2022-10-24T08:31:39.424Z,1.80
2022-10-24T08:34:06.525Z,2.00
2022-10-24T08:36:35.724Z,2.17
2022-10-24T08:39:02.958Z,2.33
2022-10-24T08:41:31.585Z,1.80
2022-10-24T08:43:59.617Z,2.00
2022-10-24T08:46:34.418Z,1.80
2022-10-24T08:49:03.566Z,2.00
2022-10-24T08:54:17.477Z,2.40
2022-10-24T08:59:14.526Z,1.97
2022-10-24T09:01:44.697Z,2.20
2022-10-24T09:04:13.213Z,2.33
2022-10-24T09:06:40.622Z,2.00
2022-10-24T09:09:13.061Z,2.23
2022-10-24T09:11:44.984Z,1.93
2022-10-24T09:14:13.068Z,2.10
2022-10-24T09:16:41.508Z,2.20
2022-10-24T09:19:11.404Z,1.90
2022-10-24T09:21:40.724Z,2.30
2022-10-24T09:24:07.977Z,1.80
2022-10-24T09:26:36.374Z,2.27
2022-10-24T09:29:04.996Z,2.27
2022-10-24T09:31:32.398Z,2.13
2022-10-24T09:34:01.186Z,2.10
2022-10-24T09:36:29.896Z,2.00
2022-10-24T09:38:57.115Z,1.87
2022-10-24T09:41:25.905Z,2.50
2022-10-24T09:43:54.407Z,2.47
2022-10-24T09:46:24.474Z,2.40
2022-10-24T09:48:55.884Z,2.23
2022-10-24T09:51:26.086Z,3.03
2022-10-24T09:54:03.429Z,2.23
2022-10-24T09:56:34.778Z,2.90
2022-10-24T09:59:17.633Z,2.53
2022-10-24T10:01:46.467Z,2.70
2022-10-24T10:04:17.318Z,2.67
2022-10-24T10:06:46.206Z,2.23
2022-10-24T10:09:13.931Z,1.57
2022-10-24T10:11:54.642Z,2.60
2022-10-24T10:14:29.682Z,2.67
2022-10-24T10:17:02.593Z,2.00
2022-10-24T10:19:30.503Z,2.60
2022-10-24T10:21:58.714Z,2.40
2022-10-24T10:24:26.900Z,2.20
2022-10-24T10:26:55.275Z,1.90
2022-10-24T10:29:23.271Z,1.90
2022-10-24T10:31:51.519Z,1.87
2022-10-24T10:34:23.902Z,2.17
2022-10-24T10:37:00.795Z,2.10
2022-10-24T10:39:34.186Z,2.10
2022-10-24T10:42:03.972Z,2.10
2022-10-24T10:44:38.160Z,2.57
2022-10-24T10:47:11.010Z,2.30
2022-10-24T10:49:40.792Z,2.50
2022-10-24T10:52:12.718Z,2.80
2022-10-24T10:54:56.208Z,2.43
2022-10-24T10:57:29.094Z,2.70
2022-10-24T10:59:59.125Z,2.73
2022-10-24T11:02:35.533Z,2.03
2022-10-24T11:05:09.589Z,2.43
2022-10-24T11:07:42.659Z,2.53
2022-10-24T11:10:11.331Z,2.20
2022-10-24T11:12:39.436Z,2.80
2022-10-24T11:15:10.206Z,2.57
2022-10-24T11:17:40.848Z,2.47
2022-10-24T11:20:14.930Z,2.10
2022-10-24T11:22:46.277Z,3.40
2022-10-24T11:25:21.437Z,1.73
2022-10-24T11:27:51.191Z,2.30
2022-10-24T11:30:19.559Z,2.03
2022-10-24T11:32:49.810Z,2.07
2022-10-24T11:35:28.439Z,2.80
2022-10-24T11:37:57.999Z,2.57
2022-10-24T11:40:26.595Z,2.10
2022-10-24T11:42:56.891Z,2.00
2022-10-24T11:45:26.952Z,2.60
2022-10-24T11:47:57.487Z,2.60
2022-10-24T11:50:33.799Z,1.77
2022-10-24T11:53:03.642Z,2.33
2022-10-24T11:55:32.676Z,2.40
2022-10-24T11:58:00.815Z,2.93
2022-10-24T12:00:29.590Z,2.73
2022-10-24T12:03:07.218Z,2.47
2022-10-24T12:05:46.205Z,1.93
2022-10-24T12:08:34.379Z,1.90
2022-10-24T12:11:19.366Z,2.03
2022-10-24T12:13:52.385Z,2.13
2022-10-24T12:16:25.571Z,2.20
2022-10-24T12:18:56.830Z,2.70
2022-10-24T12:21:26.932Z,2.80
2022-10-24T12:23:54.617Z,2.93
2022-10-24T12:26:25.710Z,2.90
2022-10-24T12:28:56.609Z,2.57
2022-10-24T12:31:27.026Z,2.50
2022-10-24T12:34:12.794Z,2.80
2022-10-24T12:36:58.311Z,2.30
2022-10-24T12:39:30.633Z,2.13
2022-10-24T12:41:57.741Z,2.27
2022-10-24T12:44:39.717Z,2.50
2022-10-24T12:47:25.409Z,2.13
2022-10-24T12:49:52.552Z,3.13
2022-10-24T12:52:34.546Z,2.77
2022-10-24T12:55:03.009Z,3.30
2022-10-24T12:57:31.973Z,2.23
2022-10-24T12:59:59.668Z,2.07
2022-10-24T13:02:44.528Z,2.40
2022-10-24T13:05:18.230Z,2.90
2022-10-24T13:07:50.771Z,2.07
2022-10-24T13:10:32.337Z,2.23
2022-10-24T13:13:05.617Z,2.50
2022-10-24T13:15:38.576Z,2.13
2022-10-24T13:18:11.049Z,3.03
2022-10-24T13:20:39.116Z,2.33
2022-10-24T13:23:12.502Z,2.10
2022-10-24T13:25:41.388Z,2.10
2022-10-24T13:28:32.559Z,2.50
2022-10-24T13:31:14.544Z,2.73
2022-10-24T13:33:42.742Z,2.37
2022-10-24T13:36:17.059Z,1.90
2022-10-24T13:38:46.719Z,2.73
2022-10-24T13:41:20.150Z,2.00
2022-10-24T13:43:48.715Z,1.87
2022-10-24T13:46:21.302Z,2.13
2022-10-24T13:48:48.706Z,2.07
2022-10-24T13:51:20.379Z,1.53
2022-10-24T13:53:49.599Z,3.20
2022-10-24T13:56:18.331Z,2.30
2022-10-24T13:58:45.800Z,2.10
2022-10-24T14:01:17.365Z,2.00
2022-10-24T14:03:44.971Z,2.10
2022-10-24T14:06:12.264Z,2.27
2022-10-24T14:08:42.759Z,1.80
2022-10-24T14:11:14.533Z,2.00
2022-10-24T14:13:45.868Z,2.20
2022-10-24T14:16:13.541Z,2.43
2022-10-24T14:18:40.799Z,1.40
2022-10-24T14:21:17.292Z,2.50
2022-10-24T14:23:53.490Z,1.77
2022-10-24T14:26:21.471Z,1.60
2022-10-24T14:28:50.939Z,2.00
2022-10-24T14:31:20.729Z,2.20
2022-10-24T14:33:48.691Z,1.90
2022-10-24T14:36:16.132Z,2.43
2022-10-24T14:38:43.882Z,2.23
2022-10-24T14:41:11.006Z,1.80
2022-10-24T14:43:40.253Z,2.10
2022-10-24T14:46:25.584Z,2.30
2022-10-24T14:48:53.102Z,2.07
2022-10-24T14:51:25.026Z,2.03
2022-10-24T14:53:52.550Z,2.40
2022-10-24T14:56:22.893Z,2.00
2022-10-24T14:58:51.240Z,1.93
2022-10-24T15:01:20.637Z,1.83
2022-10-24T15:03:52.070Z,1.90
2022-10-24T15:06:23.418Z,2.53
2022-10-24T15:09:03.863Z,2.17
2022-10-24T15:11:32.428Z,2.33
2022-10-24T15:14:06.625Z,2.23
2022-10-24T15:16:36.754Z,1.90
2022-10-24T15:19:04.491Z,2.73
2022-10-24T15:21:32.771Z,3.60
2022-10-24T15:24:00.566Z,2.40
2022-10-24T15:26:33.338Z,1.97
2022-10-24T15:29:06.084Z,1.80
2022-10-24T15:31:34.448Z,1.90
2022-10-24T15:34:02.933Z,2.30
2022-10-24T15:36:31.752Z,2.20
2022-10-24T15:39:00.090Z,2.03
2022-10-24T15:41:27.510Z,2.23
2022-10-24T15:43:55.012Z,2.47
2022-10-24T15:46:22.164Z,2.20
2022-10-24T15:48:49.558Z,2.50
2022-10-24T15:51:18.925Z,1.83
2022-10-24T15:53:46.782Z,2.20
2022-10-24T15:56:13.915Z,1.80
2022-10-24T15:58:41.302Z,2.40
2022-10-24T16:01:09.109Z,2.20
2022-10-24T16:03:36.384Z,2.30
2022-10-24T16:06:03.479Z,1.70
2022-10-24T16:08:31.949Z,3.40
2022-10-24T16:10:59.079Z,2.30
2022-10-24T16:13:26.152Z,2.27
2022-10-24T16:15:53.405Z,1.90
2022-10-24T16:18:20.554Z,2.70
2022-10-24T16:20:47.624Z,3.20
2022-10-24T16:23:15.805Z,2.87
2022-10-24T16:25:44.471Z,2.70
2022-10-24T16:28:11.650Z,2.30
2022-10-24T16:30:39.420Z,2.40
2022-10-24T16:33:06.625Z,2.50
2022-10-24T16:35:35.429Z,2.73
2022-10-24T16:38:03.035Z,2.60
2022-10-24T16:40:30.227Z,2.73
2022-10-24T16:42:59.514Z,2.60
2022-10-24T16:45:26.635Z,2.53
2022-10-24T16:47:53.738Z,2.30
2022-10-24T16:50:22.467Z,2.47
2022-10-24T16:52:49.546Z,2.77
2022-10-24T16:55:16.697Z,2.73
2022-10-24T16:57:44.002Z,2.30
2022-10-24T17:00:13.789Z,2.77
2022-10-24T17:02:40.901Z,2.73
2022-10-24T17:05:08.163Z,2.90
2022-10-24T17:07:35.231Z,2.70
2022-10-24T17:10:02.356Z,2.50
2022-10-24T17:12:29.459Z,2.90
2022-10-24T17:14:56.548Z,2.87
2022-10-24T17:17:25.007Z,2.30
2022-10-24T17:19:52.133Z,2.40
2022-10-24T17:22:19.292Z,2.07
2022-10-24T17:24:46.583Z,2.80
2022-10-24T17:27:14.249Z,2.20
2022-10-24T17:29:41.813Z,2.50
2022-10-24T17:32:11.507Z,2.53
2022-10-24T17:34:40.465Z,2.60
2022-10-24T17:37:08.568Z,2.40
2022-10-24T17:39:44.713Z,2.50
2022-10-24T17:42:13.046Z,2.97
2022-10-24T17:44:40.358Z,2.80
2022-10-24T17:47:07.786Z,3.83
2022-10-24T17:49:34.915Z,3.03
2022-10-24T17:52:03.703Z,2.60
2022-10-24T17:54:30.886Z,3.20
2022-10-24T17:56:58.006Z,3.07
2022-10-24T17:59:25.098Z,2.40
2022-10-24T18:01:52.350Z,3.00
2022-10-24T18:04:19.571Z,3.00
2022-10-24T18:06:46.723Z,2.60
2022-10-24T18:09:15.134Z,2.43
2022-10-24T18:11:42.221Z,2.57
2022-10-24T18:14:09.523Z,2.10
2022-10-24T18:16:38.069Z,1.70
2022-10-24T18:19:05.487Z,2.93
2022-10-24T18:21:32.714Z,1.87
2022-10-24T18:23:59.825Z,2.20
2022-10-24T18:26:28.447Z,1.80
2022-10-24T18:28:56.201Z,1.67
2022-10-24T18:31:24.021Z,2.33
2022-10-24T18:33:51.571Z,1.60
2022-10-24T18:36:19.427Z,2.73
2022-10-24T18:38:46.541Z,2.53
2022-10-24T18:41:23.764Z,1.77
2022-10-24T18:43:52.633Z,1.97
2022-10-24T18:46:20.389Z,1.57
2022-10-24T18:48:47.750Z,2.00
2022-10-24T18:51:22.843Z,1.70
2022-10-24T18:53:50.058Z,2.17
2022-10-24T18:56:19.957Z,1.73
2022-10-24T18:58:47.958Z,2.07
2022-10-24T19:01:22.459Z,1.50
2022-10-24T19:03:49.933Z,2.30
2022-10-24T19:06:21.998Z,1.60
2022-10-24T19:08:49.219Z,2.00
2022-10-24T19:11:16.454Z,2.23
2022-10-24T19:13:43.694Z,2.60
2022-10-24T19:16:12.310Z,2.50
2022-10-24T19:18:43.226Z,2.67
2022-10-24T19:21:10.317Z,1.80
2022-10-24T19:23:37.387Z,3.03
2022-10-24T19:26:04.529Z,2.60
2022-10-24T19:28:31.604Z,2.33
2022-10-24T19:30:58.726Z,2.07
2022-10-24T19:33:25.830Z,2.47
2022-10-24T19:35:54.261Z,2.37
2022-10-24T19:38:21.364Z,2.00
2022-10-24T19:40:49.135Z,2.10
2022-10-24T19:43:16.232Z,2.50
2022-10-24T19:45:50.174Z,2.80
2022-10-24T19:48:19.095Z,3.73
2022-10-24T19:50:46.185Z,2.40
2022-10-24T19:53:14.590Z,2.80
2022-10-24T19:55:41.679Z,2.70
2022-10-24T19:58:09.099Z,2.47
2022-10-24T20:00:36.268Z,3.03
2022-10-24T20:03:03.341Z,2.60
2022-10-24T20:05:30.577Z,2.53
2022-10-24T20:07:57.727Z,2.20
2022-10-24T20:10:26.385Z,2.17
2022-10-24T20:12:53.478Z,3.27
2022-10-24T20:15:20.546Z,3.30
2022-10-24T20:17:47.805Z,2.87
2022-10-24T20:20:15.000Z,3.80
2022-10-24T20:22:42.129Z,2.47
2022-10-24T20:25:09.193Z,3.47
2022-10-24T20:27:37.947Z,2.90
2022-10-24T20:30:05.457Z,2.80
2022-10-24T20:32:32.537Z,2.73
2022-10-24T20:34:59.648Z,2.93
2022-10-24T20:37:26.806Z,3.47
2022-10-24T20:39:53.910Z,3.80
2022-10-24T20:42:21.017Z,3.63
2022-10-24T20:44:49.459Z,3.87
2022-10-24T20:47:16.561Z,3.03
2022-10-24T20:49:43.661Z,3.50
2022-10-24T20:54:38.807Z,2.47
2022-10-24T20:57:05.889Z,2.40
2022-10-24T20:59:33.022Z,2.60
2022-10-24T21:02:01.556Z,2.57
2022-10-24T21:04:28.783Z,2.50
2022-10-24T21:06:55.871Z,2.60
2022-10-24T21:09:23.032Z,2.20
2022-10-24T21:11:50.137Z,1.53
2022-10-24T21:14:17.245Z,2.00
2022-10-24T21:16:44.338Z,1.77
2022-10-24T21:19:12.771Z,1.70
2022-10-24T21:21:39.922Z,1.80
2022-10-24T21:24:07.371Z,1.60
2022-10-24T21:26:34.480Z,2.03
2022-10-24T21:29:14.908Z,1.43
2022-10-24T21:31:49.000Z,1.90
2022-10-24T21:34:17.656Z,1.60
2022-10-24T21:36:44.762Z,2.10
2022-10-24T21:39:12.432Z,2.60
2022-10-24T21:41:39.544Z,2.00
2022-10-24T21:44:06.619Z,1.73
2022-10-24T21:46:33.985Z,2.30
2022-10-24T21:49:01.352Z,2.20
2022-10-24T21:51:30.637Z,2.70
2022-10-24T21:53:58.785Z,2.20
2022-10-24T21:56:27.056Z,2.10
2022-10-24T21:58:54.939Z,1.97
2022-10-24T22:01:22.783Z,1.70
2022-10-24T22:03:49.912Z,2.30
2022-10-24T22:06:17.880Z,3.40
2022-10-24T22:08:47.180Z,2.37
2022-10-24T22:11:15.262Z,2.33
2022-10-24T22:13:42.806Z,2.67
2022-10-24T22:16:11.063Z,2.83
2022-10-24T22:18:38.655Z,3.33
2022-10-24T22:21:07.633Z,2.90
2022-10-24T22:23:36.835Z,2.53
2022-10-24T22:26:05.248Z,3.13
2022-10-24T22:28:32.515Z,3.40
2022-10-24T22:30:59.880Z,3.60
2022-10-24T22:33:31.683Z,4.10
2022-10-24T22:36:00.187Z,3.80
2022-10-24T22:38:27.574Z,3.20
2022-10-24T22:40:54.944Z,2.83
2022-10-24T22:43:23.800Z,3.37
2022-10-24T22:45:56.187Z,2.53
2022-10-24T22:48:26.567Z,3.10
2022-10-24T22:50:54.541Z,3.30
2022-10-24T22:53:22.945Z,3.03
2022-10-24T22:56:05.068Z,2.83
2022-10-24T22:58:33.776Z,2.80
2022-10-24T23:01:01.853Z,3.23
2022-10-24T23:03:33.446Z,2.50
2022-10-24T23:06:01.417Z,2.70
2022-10-24T23:08:31.317Z,3.30
2022-10-24T23:10:58.701Z,4.00
2022-10-24T23:13:26.039Z,2.40
2022-10-24T23:15:55.131Z,2.80
2022-10-24T23:21:05.513Z,2.90
2022-10-24T23:23:32.719Z,3.00
2022-10-24T23:26:03.833Z,2.83
2022-10-24T23:28:35.655Z,2.73
2022-10-24T23:31:04.541Z,3.50
2022-10-24T23:33:31.816Z,3.50
2022-10-24T23:35:59.871Z,3.60
2022-10-24T23:38:27.277Z,3.07
2022-10-24T23:40:54.794Z,2.90
2022-10-24T23:43:22.402Z,2.70
2022-10-24T23:45:51.307Z,2.63
2022-10-24T23:48:22.784Z,2.80
2022-10-24T23:50:52.878Z,2.87
2022-10-24T23:53:23.896Z,3.50
2022-10-24T23:55:51.234Z,2.53
2022-10-24T23:58:18.438Z,2.60
